Flight Track Log - Related Links

Times and Time Zones

All times are in EDT time to prevent confusion due to time zone crossing. See the SKW2636 flight status page for this flight to view local times or setup timezone preferences in your user account.


Time Position Orientation Groundspeed Altitude Reporting Facility
EDT Latitude Longitude Course Direction KTS MPH feet Rate Location/Type
Fri 07:19:06 PM 34.4261 -119.8614 239° Southwest 135 155 700  Level Los Angeles Center
Fri 07:20:16 PM 34.3981 -119.9181 239° Southwest 238 274 3,700 2,504 Climbing Los Angeles Center
Fri 07:21:13 PM 34.3383 -119.8847 155° Southeast 253 291 6,000 2,371 Climbing Los Angeles Center
Fri 07:22:20 PM 34.2686 -119.8422 153° Southeast 271 312 8,600 2,123 Climbing Los Angeles Center
Fri 07:23:23 PM 34.2392 -119.7528 112° Southeast 297 342 10,600 1,200 Climbing Los Angeles Center
Fri 07:24:25 PM 34.2186 -119.6408 102° East 333 383 11,100 194 Climbing Los Angeles Center
Fri 07:25:27 PM 34.1928 -119.4858 101° East 389 448 11,000 -48 Descending Los Angeles Center
Fri 07:26:29 PM 34.1714 -119.3539 101° East 405 466 11,000  Level Los Angeles Center
Fri 07:27:31 PM 34.1492 -119.2306 102° East 371 427 11,000  Level Los Angeles Center
Fri 07:28:33 PM 34.1303 -119.1294 103° East 308 354 11,000  Level Los Angeles Center
Fri 07:29:35 PM 34.1117 -119.0303 103° East 303 349 11,000  Level Los Angeles Center
Fri 07:30:37 PM 34.0844 -118.9353 109° East 300 345 11,000 -290 Level Los Angeles Center
Fri 07:31:39 PM 34.0536 -118.8189 108° East 302 348 10,400 -432 Descending Los Angeles Center
Fri 07:32:42 PM 34.0356 -118.7247 103° East 299 344 10,100 -240 Descending Los Angeles Center
Fri 07:33:44 PM 34.0253 -118.6158 96° East 300 345 9,900 -435 Descending Los Angeles Center
Fri 07:34:46 PM 34.0167 -118.5233 96° East 275 316 9,200 -823 Descending Los Angeles Center
Fri 07:35:48 PM 34.0156 -118.4531 91° East 220 253 8,200 -968 Descending Los Angeles Center
Fri 07:36:50 PM 34.0242 -118.3981 79° East 207 238 7,200 -871 Descending Los Angeles Center
Fri 07:37:52 PM 34.0367 -118.3164 80° East 207 238 6,400 -629 Descending Los Angeles Center
Fri 07:38:54 PM 34.0461 -118.2350 82° East 204 235 5,900 -1,355 Descending Los Angeles Center
Fri 07:39:56 PM 34.0006 -118.2397 185° South 206 237 3,600 -1,872 Descending Los Angeles Center
Fri 07:40:59 PM 33.9772 -118.2989 245° Southwest 203 234 2,000 -1,152 Descending Los Angeles Center
Fri 07:42:01 PM 33.9575 -118.3417 241° Southwest 171 197 1,200 -726 Descending Los Angeles Center
Fri 07:43:03 PM 33.9550 -118.3856 266° West 146 168 500 -484 Descending Los Angeles Center
Fri 07:44:05 PM 33.9500 -118.4367 263° West 141 162 200 -290 Descending Los Angeles Center

Login

Don't have an account? Register now (free) for customized features, flight alerts, and more!